WetterOnline ( https://www.wetteronline.de )

Wetter aktuell Daun

Aktuelles Wetter: Nürburg-Barweiler (488m)

6-stündlich | Neueste Meldungen
Ortszeit Temperatur Wetter
So, 13.10. 20:00 18.1° C wolkig
So, 13.10. 14:00 20.3° C leicht bewölkt
So, 13.10. 8:00 14.4° C wolkenlos
So, 13.10. 2:00 14.9° C bewölkt
Sa, 12.10. 20:00 14.9° C wolkig
Sa, 12.10. 14:00 16.4° C fast wolkenlos
Sa, 12.10. 8:00 12.2° C wolkenlos
Sa, 12.10. 2:00 11.3° C leicht bewölkt
Ortszeit Temperatur Wetter
So, 13.10. 22:30 17.5° C leichter Regen
So, 13.10. 22:20 17.5° C leichter Regen
So, 13.10. 22:10 17.6° C wolkig
So, 13.10. 22:00 17.5° C leicht bewölkt
So, 13.10. 21:50 17.5° C leicht bewölkt
So, 13.10. 21:40 17.6° C leicht bewölkt
So, 13.10. 21:30 17.6° C wolkenlos
So, 13.10. 21:00 17.7° C leicht bewölkt
So, 13.10. 20:30 17.9° C wolkenlos
So, 13.10. 20:00 18.1° C wolkig
So, 13.10. 19:30 18.6° C wolkig
Ortszeit Relative Feuchte Sichtweite
So, 13.10. 20:00 76% 40 km
So, 13.10. 14:00 65% 17 km
So, 13.10. 8:00 91% 30 km
So, 13.10. 2:00 93% 22 km
Sa, 12.10. 20:00 80% 45 km
Sa, 12.10. 14:00 67% 65 km
Sa, 12.10. 8:00 81% 60 km
Sa, 12.10. 2:00 90% 35 km
Ortszeit Relative Feuchte Sichtweite
So, 13.10. 22:30 75% 40 km
So, 13.10. 22:20 75% -
So, 13.10. 22:10 74% -
So, 13.10. 22:00 75% 40 km
So, 13.10. 21:50 75% -
So, 13.10. 21:40 75% -
So, 13.10. 21:30 76% 40 km
So, 13.10. 21:00 76% 40 km
So, 13.10. 20:30 76% 35 km
So, 13.10. 20:00 76% 40 km
So, 13.10. 19:30 74% 40 km
Ortszeit Niederschlagsmenge Niederschlagsart
So, 13.10. 20:00 0.1 l/m2 in 12 Std. -
So, 13.10. 14:00 0.1 l/m2 in 6 Std. Regen
So, 13.10. 8:00 0.0 l/m2 in 12 Std. -
So, 13.10. 2:00 0.0 l/m2 in 6 Std. -
Sa, 12.10. 20:00 0.1 l/m2 in 12 Std. Regen
Sa, 12.10. 14:00 0.0 l/m2 in 6 Std. -
Sa, 12.10. 8:00 0.0 l/m2 in 12 Std. -
Sa, 12.10. 2:00 0.0 l/m2 in 6 Std. -
Ortszeit Niederschlagsmenge Niederschlagsart
So, 13.10. 22:30 0.1 l/m2 in 1 Std. -
So, 13.10. 22:20 keine Meldung -
So, 13.10. 22:10 keine Meldung -
So, 13.10. 22:00 0.0 l/m2 in 1 Std. -
So, 13.10. 21:50 keine Meldung -
So, 13.10. 21:40 keine Meldung -
So, 13.10. 21:30 0.0 l/m2 in 1 Std. -
So, 13.10. 21:00 0.0 l/m2 in 1 Std. -
So, 13.10. 20:30 0.0 l/m2 in 1 Std. -
So, 13.10. 20:00 0.0 l/m2 in 1 Std. -
So, 13.10. 19:30 0.0 l/m2 in 1 Std. -
Ortszeit Stärke Spitze Richtung
km/h Bft. km/h Grad Sektor
So, 13.10. 20:00 14 3 40 190° S
So, 13.10. 14:00 14 3 40 200° S
So, 13.10. 8:00 11 2 32 190° S
So, 13.10. 2:00 9 2 35 210° SW
Sa, 12.10. 20:00 14 3 50 210° SW
Sa, 12.10. 14:00 22 4 43 220° SW
Sa, 12.10. 8:00 22 4 40 230° SW
Sa, 12.10. 2:00 14 3 40 200° S
Ortszeit Stärke Spitze Richtung
km/h Bft. km/h Grad Sektor
So, 13.10. 22:30 13 3 30 220° SW
So, 13.10. 22:20 13 3 - 220° SW
So, 13.10. 22:10 13 3 - 220° SW
So, 13.10. 22:00 14 3 32 200° S
So, 13.10. 21:50 14 3 - 200° S
So, 13.10. 21:40 14 3 - 200° S
So, 13.10. 21:30 17 3 31 190° S
So, 13.10. 21:00 15 3 30 190° S
So, 13.10. 20:30 13 3 28 190° S
So, 13.10. 20:00 14 3 32 190° S
So, 13.10. 19:30 13 3 31 190° S
Ortszeit Untergrenze Bedeckung Gattung
total tief tief mittel hoch
So, 13.10. 20:00 9000 m 7/8 0/8 - - -
So, 13.10. 14:00 3000 m 2/8 2/8 - - -
So, 13.10. 8:00 - 0/8 0/8 - - -
So, 13.10. 2:00 330 m 7/8 7/8 - - -
Sa, 12.10. 20:00 7800 m 8/8 0/8 - - -
Sa, 12.10. 14:00 2100 m 1/8 1/8 - - -
Sa, 12.10. 8:00 - 0/8 0/8 - - -
Sa, 12.10. 2:00 9000 m 3/8 0/8 - - -
Ortszeit Bedeckungsgrad in Achtel und Wolkenuntergrenze
So, 13.10. 22:30 1(1380m) 7(2400m) 7(3300m)
So, 13.10. 22:20 1(1380m) 7(2400m) 7(3300m)
So, 13.10. 22:10 2(2100m) 5(2400m) 7(3600m)
So, 13.10. 22:00 1(2700m) 4(3600m)
So, 13.10. 21:50 1(2700m) 4(3600m)
So, 13.10. 21:40 1(2700m) 2(3600m)
So, 13.10. 21:30 keine Wolken
So, 13.10. 21:00 4(10500m)
So, 13.10. 20:30 2(10500m)
So, 13.10. 20:00 2(9000m) 5(10500m) 7(10500m)
So, 13.10. 19:30 2(7200m) 3(9000m) 7(10500m)
Ortszeit Luftdruck NN (hPa) Tendenz (hPa in 3 Std.)
So, 13.10. 20:00 1011 + 0,7
So, 13.10. 14:00 1010 - 0,2
So, 13.10. 8:00 1011 - 0,4
So, 13.10. 2:00 1012 + 0,3
Sa, 12.10. 20:00 1012 - 0,5
Sa, 12.10. 14:00 1012 + 0,2
Sa, 12.10. 8:00 1011 - 0,2
Sa, 12.10. 2:00 1013 - 0,4
Ortszeit Luftdruck NN (hPa) Tendenz (hPa in 3 Std.)
So, 13.10. 22:30 1012 + 1,5
So, 13.10. 22:20 1012 keine Meldung
So, 13.10. 22:10 1012 keine Meldung
So, 13.10. 22:00 1012 + 1,1
So, 13.10. 21:50 1012 keine Meldung
So, 13.10. 21:40 1012 keine Meldung
So, 13.10. 21:30 1011 + 1,2
So, 13.10. 21:00 1011 + 1,0
So, 13.10. 20:30 1011 + 0,7
So, 13.10. 20:00 1011 + 0,7
So, 13.10. 19:30 1010 + 0,5
Ortszeit Schneehöhe (cm)
So, 13.10. 20:00 0
So, 13.10. 14:00 0
So, 13.10. 8:00 0
So, 13.10. 2:00 0
Sa, 12.10. 20:00 0
Sa, 12.10. 14:00 0
Sa, 12.10. 8:00 0
Sa, 12.10. 2:00 0
Ortszeit Schneehöhe (cm)
So, 13.10. 22:30 0
So, 13.10. 22:20 0
So, 13.10. 22:10 0
So, 13.10. 22:00 0
So, 13.10. 21:50 0
So, 13.10. 21:40 0
So, 13.10. 21:30 0
So, 13.10. 21:00 0
So, 13.10. 20:30 0
So, 13.10. 20:00 0
So, 13.10. 19:30 0
Link zu dieser Seite / Seite empfehlen

Das Wetter in ...